createdAt,value
2022-08-05T00:02:57.235Z,6.05
2022-08-05T00:07:00.965Z,5.90
2022-08-05T00:11:30.317Z,4.70
2022-08-05T00:15:56.050Z,3.28
2022-08-05T00:20:02.472Z,3.15
2022-08-05T00:24:10.409Z,3.28
2022-08-05T00:28:14.004Z,3.13
2022-08-05T00:32:18.152Z,2.83
2022-08-05T00:37:12.516Z,2.67
2022-08-05T00:40:53.158Z,3.17
2022-08-05T00:44:56.217Z,2.63
2022-08-05T00:49:00.303Z,2.80
2022-08-05T00:53:03.103Z,3.05
2022-08-05T00:57:12.436Z,2.88
2022-08-05T01:01:16.215Z,2.85
2022-08-05T01:05:40.815Z,2.95
2022-08-05T01:09:44.717Z,3.10
2022-08-05T01:13:59.099Z,3.70
2022-08-05T01:18:06.049Z,3.85
2022-08-05T01:22:24.599Z,3.72
2022-08-05T01:26:49.529Z,3.67
2022-08-05T01:30:57.872Z,4.13
2022-08-05T01:35:02.959Z,4.50
2022-08-05T01:39:16.249Z,4.15
2022-08-05T01:43:39.444Z,3.70
2022-08-05T01:47:46.837Z,4.03
2022-08-05T01:51:52.543Z,3.80
2022-08-05T01:55:58.944Z,3.80
2022-08-05T02:00:12.125Z,4.05
2022-08-05T02:04:19.224Z,3.95
2022-08-05T02:08:29.755Z,3.80
2022-08-05T02:12:39.503Z,3.90
2022-08-05T02:16:47.270Z,4.38
2022-08-05T02:21:03.807Z,3.53
2022-08-05T02:25:13.621Z,3.33
2022-08-05T02:29:24.140Z,3.20
2022-08-05T02:33:38.411Z,5.15
2022-08-05T02:37:47.727Z,7.53
2022-08-05T02:42:01.493Z,7.90
2022-08-05T02:46:06.068Z,9.18
2022-08-05T02:50:10.450Z,8.05
2022-08-05T02:54:35.726Z,8.57
2022-08-05T02:58:43.755Z,7.95
2022-08-05T03:02:48.744Z,6.47
2022-08-05T03:06:55.218Z,6.70
2022-08-05T03:11:55.639Z,6.97
2022-08-05T03:15:25.875Z,6.90
2022-08-05T03:19:33.748Z,6.57
2022-08-05T03:23:39.321Z,6.78
2022-08-05T03:28:00.048Z,4.82
2022-08-05T03:32:04.751Z,4.63
2022-08-05T03:36:11.966Z,4.32
2022-08-05T03:40:24.246Z,4.50
2022-08-05T03:44:35.650Z,4.78
2022-08-05T03:48:38.457Z,4.70
2022-08-05T03:55:53.476Z,4.25
2022-08-05T03:57:34.172Z,4.47
2022-08-05T04:01:43.192Z,4.28
2022-08-05T04:05:49.735Z,4.10
2022-08-05T04:09:54.028Z,3.50
2022-08-05T04:14:00.444Z,4.35
2022-08-05T04:18:07.986Z,3.60
2022-08-05T04:22:13.037Z,3.85
2022-08-05T04:26:23.340Z,4.32
2022-08-05T04:30:26.367Z,4.32
2022-08-05T04:34:33.805Z,3.65
2022-08-05T04:38:39.561Z,4.13
2022-08-05T04:42:42.824Z,4.32
2022-08-05T04:46:49.219Z,4.90
2022-08-05T04:51:01.671Z,5.75
2022-08-05T04:55:15.073Z,5.85
2022-08-05T04:59:26.636Z,6.32
2022-08-05T05:03:42.137Z,6.53
2022-08-05T05:07:52.971Z,7.80
2022-08-05T05:12:02.815Z,7.45
2022-08-05T05:16:07.130Z,42.03
2022-08-05T05:20:11.328Z,41.50
2022-08-05T05:24:15.448Z,74.25
2022-08-05T05:28:21.122Z,23.20
2022-08-05T05:32:23.881Z,7.00
2022-08-05T05:36:29.801Z,7.15
2022-08-05T05:40:34.610Z,6.75
2022-08-05T05:44:42.931Z,41.08
2022-08-05T05:48:49.128Z,7.03
2022-08-05T05:52:52.047Z,37.88
2022-08-05T05:56:56.141Z,8.27
2022-08-05T06:01:12.196Z,5.97
2022-08-05T06:05:17.313Z,5.65
2022-08-05T06:09:26.641Z,6.20
2022-08-05T06:13:53.768Z,9.05
2022-08-05T06:17:58.165Z,14.43
2022-08-05T06:22:00.994Z,16.75
2022-08-05T06:26:20.845Z,22.13
2022-08-05T06:30:27.315Z,20.52
2022-08-05T06:34:30.837Z,22.58
2022-08-05T06:38:36.496Z,18.67
2022-08-05T06:42:40.349Z,17.30
2022-08-05T06:46:44.527Z,14.43
2022-08-05T06:50:47.858Z,15.63
2022-08-05T06:54:52.793Z,8.80
2022-08-05T06:58:56.515Z,8.40
2022-08-05T07:03:01.385Z,8.27
2022-08-05T07:07:07.897Z,8.55
2022-08-05T07:11:15.289Z,9.52
2022-08-05T07:16:01.074Z,9.65
2022-08-05T07:24:24.057Z,11.45
2022-08-05T07:28:31.751Z,11.70
2022-08-05T07:32:36.701Z,11.52
2022-08-05T07:36:40.976Z,11.63
2022-08-05T07:40:44.737Z,12.35
2022-08-05T07:44:48.804Z,13.10
2022-08-05T07:49:04.156Z,12.70
2022-08-05T07:53:10.473Z,11.13
2022-08-05T07:57:57.509Z,12.07
2022-08-05T08:01:51.590Z,11.70
2022-08-05T08:05:54.916Z,11.25
2022-08-05T08:10:00.975Z,11.27
2022-08-05T08:14:04.434Z,11.48
2022-08-05T08:18:13.697Z,11.75
2022-08-05T08:22:17.410Z,11.40
2022-08-05T08:26:29.819Z,10.23
2022-08-05T08:30:40.872Z,9.95
2022-08-05T08:34:50.699Z,10.27
2022-08-05T08:38:55.303Z,12.40
2022-08-05T08:45:20.893Z,11.43
2022-08-05T08:48:06.233Z,11.68
2022-08-05T08:52:03.647Z,11.63
2022-08-05T08:56:09.436Z,11.40
2022-08-05T09:00:15.639Z,11.30
2022-08-05T09:04:22.566Z,12.27
2022-08-05T09:08:33.800Z,13.25
2022-08-05T09:12:36.811Z,14.15
2022-08-05T09:16:41.539Z,13.07
2022-08-05T09:20:51.744Z,15.93
2022-08-05T09:25:02.009Z,15.60
2022-08-05T09:29:47.537Z,14.00
2022-08-05T09:33:54.268Z,13.50
2022-08-05T09:38:17.603Z,14.43
2022-08-05T09:42:24.219Z,13.30
2022-08-05T09:46:32.890Z,13.10
2022-08-05T09:50:44.410Z,13.60
2022-08-05T09:54:56.240Z,14.57
2022-08-05T09:59:01.120Z,14.43
2022-08-05T10:03:11.404Z,14.10
2022-08-05T10:07:31.878Z,13.30
2022-08-05T10:11:38.948Z,13.90
2022-08-05T10:15:43.890Z,14.73
2022-08-05T10:20:03.948Z,12.93
2022-08-05T10:24:15.125Z,10.60
2022-08-05T10:28:29.410Z,9.77
2022-08-05T10:32:52.809Z,8.65
2022-08-05T10:36:56.498Z,7.60
2022-08-05T10:41:07.378Z,8.63
2022-08-05T10:45:23.222Z,8.65
2022-08-05T10:49:33.210Z,9.63
2022-08-05T10:53:45.646Z,9.10
2022-08-05T10:57:51.331Z,9.07
2022-08-05T11:02:08.637Z,7.90
2022-08-05T11:06:18.041Z,6.45
2022-08-05T11:10:27.377Z,6.75
2022-08-05T11:15:01.506Z,6.75
2022-08-05T11:20:10.165Z,5.93
2022-08-05T11:24:05.020Z,6.20
2022-08-05T11:28:44.182Z,6.50
2022-08-05T11:32:48.389Z,7.85
2022-08-05T11:36:53.234Z,8.32
2022-08-05T11:41:03.542Z,8.40
2022-08-05T11:45:27.046Z,5.00
2022-08-05T11:49:50.919Z,5.57
2022-08-05T11:53:54.794Z,5.50
2022-08-05T13:27:37.364Z,2.60
2022-08-05T13:32:04.791Z,3.10
2022-08-05T13:36:05.365Z,2.72
2022-08-05T13:40:16.739Z,2.78
2022-08-05T13:44:31.670Z,2.35
2022-08-05T13:48:57.519Z,2.90
2022-08-05T13:53:00.259Z,2.20
2022-08-05T13:57:03.018Z,2.80
2022-08-05T14:01:10.415Z,3.85
2022-08-05T14:05:15.383Z,3.65
2022-08-05T14:09:22.314Z,3.38
2022-08-05T14:13:25.452Z,3.72
2022-08-05T14:20:17.515Z,3.40
2022-08-05T14:24:21.319Z,3.17
2022-08-05T14:28:26.840Z,3.17
2022-08-05T14:32:31.342Z,2.92
2022-08-05T14:36:35.581Z,3.00
2022-08-05T14:40:39.381Z,2.92
2022-08-05T14:44:42.271Z,2.30
2022-08-05T14:48:49.242Z,3.20
2022-08-05T14:52:57.818Z,3.70
2022-08-05T14:57:02.675Z,4.10
2022-08-05T15:01:15.564Z,3.90
2022-08-05T15:05:19.118Z,3.65
2022-08-05T15:09:52.428Z,4.65
2022-08-05T15:13:50.190Z,3.85
2022-08-05T15:17:53.305Z,3.80
2022-08-05T15:22:00.286Z,4.38
2022-08-05T15:26:05.170Z,3.78
2022-08-05T15:30:14.347Z,4.03
2022-08-05T15:34:33.058Z,3.58
2022-08-05T15:38:41.267Z,4.32
2022-08-05T15:42:55.903Z,3.40
2022-08-05T15:47:03.600Z,3.45
2022-08-05T15:51:06.769Z,2.83
2022-08-05T15:55:16.099Z,2.53
2022-08-05T15:59:22.147Z,2.72
2022-08-05T16:03:26.854Z,2.45
2022-08-05T16:07:29.829Z,2.20
2022-08-05T16:11:43.123Z,2.13
2022-08-05T16:15:47.709Z,2.13
2022-08-05T16:20:05.296Z,2.72
2022-08-05T16:24:41.393Z,2.30
2022-08-05T16:28:37.285Z,2.17
2022-08-05T16:32:45.561Z,2.88
2022-08-05T16:36:50.162Z,2.75
2022-08-05T16:41:00.259Z,2.42
2022-08-05T16:45:05.787Z,2.30
2022-08-05T16:49:12.233Z,2.00
2022-08-05T16:53:22.541Z,1.92
2022-08-05T16:57:52.890Z,1.90
2022-08-05T17:01:54.758Z,1.85
2022-08-05T17:06:01.044Z,2.20
2022-08-05T17:10:04.083Z,2.55
2022-08-05T17:14:06.877Z,1.95
2022-08-05T17:18:16.171Z,2.20
2022-08-05T17:22:25.555Z,2.33
2022-08-05T17:26:28.768Z,2.30
2022-08-05T17:30:31.887Z,2.13
2022-08-05T17:34:34.990Z,1.75
2022-08-05T17:38:39.704Z,2.63
2022-08-05T17:42:51.370Z,1.90
2022-08-05T17:46:55.802Z,1.58
2022-08-05T17:50:58.592Z,1.17
2022-08-05T17:55:03.231Z,1.08
2022-08-05T17:59:07.026Z,1.10
2022-08-05T18:03:11.286Z,1.23
2022-08-05T18:07:14.035Z,0.80
2022-08-05T18:11:24.496Z,0.80
2022-08-05T18:15:36.196Z,0.70
2022-08-05T18:19:41.706Z,0.65
2022-08-05T18:23:54.417Z,0.55
2022-08-05T18:27:58.704Z,0.60
2022-08-05T18:32:04.855Z,0.50
2022-08-05T18:36:11.900Z,0.60
2022-08-05T18:40:34.592Z,0.65
2022-08-05T18:44:49.345Z,0.40
2022-08-05T18:49:18.574Z,0.60
2022-08-05T18:53:22.983Z,0.70
2022-08-05T18:57:28.053Z,0.50
2022-08-05T19:01:56.969Z,0.75
2022-08-05T19:06:11.176Z,0.68
2022-08-05T19:10:28.152Z,0.60
2022-08-05T19:14:37.808Z,0.50
2022-08-05T19:18:56.833Z,0.70
2022-08-05T19:23:00.071Z,0.50
2022-08-05T19:27:04.174Z,0.65
2022-08-05T19:31:07.165Z,0.95
2022-08-05T19:35:11.858Z,0.60
2022-08-05T19:39:18.428Z,0.60
2022-08-05T19:44:05.771Z,0.73
2022-08-05T19:47:47.596Z,0.80
2022-08-05T19:52:08.948Z,1.05
2022-08-05T19:56:29.878Z,1.00
2022-08-05T20:00:35.814Z,1.50
2022-08-05T20:04:43.095Z,1.23
2022-08-05T20:08:52.204Z,1.30
2022-08-05T20:12:56.379Z,1.17
2022-08-05T20:17:01.621Z,0.90
2022-08-05T20:21:06.581Z,1.10
2022-08-05T20:25:11.592Z,0.80
2022-08-05T20:29:27.436Z,0.65
2022-08-05T20:33:30.994Z,1.05
2022-08-05T20:38:06.507Z,1.40
2022-08-05T20:42:00.343Z,1.10
2022-08-05T20:46:03.259Z,0.93
2022-08-05T20:50:07.467Z,1.00
2022-08-05T20:54:14.198Z,1.25
2022-08-05T20:58:18.793Z,0.70
2022-08-05T21:02:26.877Z,1.40
2022-08-05T21:06:30.383Z,1.20
2022-08-05T21:10:33.524Z,1.30
2022-08-05T21:14:37.727Z,1.52
2022-08-05T21:18:44.973Z,1.50
2022-08-05T21:22:48.047Z,1.38
2022-08-05T21:26:57.959Z,1.63
2022-08-05T21:31:03.023Z,2.15
2022-08-05T21:35:18.406Z,1.92
2022-08-05T21:39:29.954Z,1.92
2022-08-05T21:43:41.545Z,1.52
2022-08-05T21:47:56.745Z,1.80
2022-08-05T21:52:27.402Z,2.03
2022-08-05T21:56:23.384Z,1.70
2022-08-05T22:00:29.030Z,1.67
2022-08-05T22:04:33.213Z,1.58
2022-08-05T22:08:36.128Z,1.70
2022-08-05T22:12:50.576Z,2.20
2022-08-05T22:16:56.974Z,1.83
2022-08-05T22:21:04.831Z,1.83
2022-08-05T22:26:10.334Z,2.05
2022-08-05T22:30:02.706Z,1.80
2022-08-05T22:34:07.089Z,2.40
2022-08-05T22:38:12.636Z,2.10
2022-08-05T22:42:25.259Z,1.98
2022-08-05T22:46:28.364Z,2.30
2022-08-05T22:50:32.843Z,1.90
2022-08-05T22:54:40.398Z,2.20
2022-08-05T22:58:51.796Z,2.00
2022-08-05T23:02:58.264Z,2.00
2022-08-05T23:07:01.243Z,1.70
2022-08-05T23:11:06.009Z,2.10
2022-08-05T23:15:12.221Z,2.20
2022-08-05T23:19:25.769Z,1.85
2022-08-05T23:23:30.005Z,1.95
2022-08-05T23:27:42.439Z,2.03
2022-08-05T23:32:00.833Z,1.65
2022-08-05T23:36:03.822Z,1.88
2022-08-05T23:40:10.853Z,1.70
2022-08-05T23:44:16.557Z,1.80
2022-08-05T23:48:22.411Z,1.80
2022-08-05T23:52:30.815Z,1.70
2022-08-05T23:56:36.107Z,1.92
